Time;durP1;ratioP1;P1;durP2;ratioP2;P2;SDS_P1;SDS_P2;PMS_P1;PMS_P2;Temp;Humidity;BMP_temperature;BMP_pressure;BME280_temperature;BME280_humidity;BME280_pressure;Samples;Min_cycle;Max_cycle;Signal;HPM_P1;HPM_P2
2022/07/04 00:02:23;;;;;;;3.30;1.48;;;;;;;15.22;71.15;101305.16;4960400;28;20017;-65
2022/07/04 00:04:48;;;;;;;4.43;1.33;;;;;;;15.34;71.20;101303.94;4970468;28;20025;-66
2022/07/04 00:07:14;;;;;;;3.72;1.42;;;;;;;15.32;70.67;101305.06;4955395;28;20195;-66
2022/07/04 00:09:40;;;;;;;2.25;1.60;;;;;;;15.35;70.65;101302.91;4967572;28;20014;-67
2022/07/04 00:12:05;;;;;;;1.50;1.40;;;;;;;15.10;71.23;101302.72;4945877;28;20017;-66
2022/07/04 00:14:31;;;;;;;1.40;1.20;;;;;;;14.99;71.89;101304.78;4966816;28;20083;-66
2022/07/04 00:16:56;;;;;;;2.22;1.40;;;;;;;14.96;71.99;101303.28;4949128;28;21084;-66
2022/07/04 00:19:22;;;;;;;3.20;1.40;;;;;;;14.97;71.97;101304.91;4945992;28;20025;-66
2022/07/04 00:21:47;;;;;;;1.23;1.20;;;;;;;14.78;72.67;101303.25;4950122;28;20014;-66
2022/07/04 00:24:13;;;;;;;2.28;1.40;;;;;;;14.67;73.25;101306.97;4962813;28;20040;-66
2022/07/04 00:26:38;;;;;;;2.97;1.60;;;;;;;14.62;73.62;101308.34;4965772;28;20325;-66
2022/07/04 00:29:03;;;;;;;1.38;1.27;;;;;;;14.67;73.41;101306.97;4979825;28;20006;-66
2022/07/04 00:31:29;;;;;;;1.15;1.00;;;;;;;14.85;72.74;101306.97;4933930;28;20087;-67
2022/07/04 00:33:54;;;;;;;1.20;1.20;;;;;;;14.82;72.95;101303.78;4962014;28;20171;-67
2022/07/04 00:36:20;;;;;;;3.22;1.30;;;;;;;14.77;72.56;101301.56;4950912;28;20924;-66
2022/07/04 00:38:45;;;;;;;2.70;1.30;;;;;;;14.76;72.44;101306.06;4962767;28;20006;-66
2022/07/04 00:41:11;;;;;;;2.35;1.20;;;;;;;14.79;72.51;101298.75;4966347;28;20168;-65
2022/07/04 00:43:36;;;;;;;2.78;1.23;;;;;;;14.77;72.36;101304.22;4961462;28;20018;-66
2022/07/04 00:46:07;;;;;;;1.33;1.23;;;;;;;14.53;73.13;101302.94;4954114;28;20737;-67
2022/07/04 00:48:33;;;;;;;2.53;1.48;;;;;;;14.39;73.79;101295.47;4929775;28;20111;-66
2022/07/04 00:50:58;;;;;;;4.10;1.40;;;;;;;14.55;73.54;101298.31;4944614;28;20026;-65
2022/07/04 00:53:24;;;;;;;2.00;1.40;;;;;;;14.51;73.12;101291.59;4947523;28;20952;-67
2022/07/04 00:55:52;;;;;;;1.50;1.30;;;;;;;14.36;73.52;101287.78;4946393;28;20059;-66
2022/07/04 00:58:22;;;;;;;1.90;1.40;;;;;;;14.20;74.01;101285.72;4951379;28;20025;-66
2022/07/04 01:00:47;;;;;;;2.15;1.00;;;;;;;14.20;73.94;101289.25;4948645;28;20017;-67
2022/07/04 01:03:13;;;;;;;3.25;1.30;;;;;;;14.08;74.36;101285.91;4965431;28;20281;-67
2022/07/04 01:05:38;;;;;;;2.40;1.20;;;;;;;13.98;74.82;101279.81;4931580;28;20021;-66
2022/07/04 01:08:04;;;;;;;2.95;1.30;;;;;;;13.90;75.24;101277.03;4946938;28;20044;-66
2022/07/04 01:10:30;;;;;;;1.58;1.38;;;;;;;13.89;75.32;101278.03;4948984;28;20050;-67
2022/07/04 01:12:55;;;;;;;2.60;1.30;;;;;;;13.94;74.84;101278.41;4946201;28;20216;-66
2022/07/04 01:15:21;;;;;;;1.65;1.35;;;;;;;13.91;74.97;101278.72;4951902;28;20018;-67
2022/07/04 01:17:46;;;;;;;1.77;1.33;;;;;;;13.87;75.08;101278.16;4982278;28;20757;-66
2022/07/04 01:20:13;;;;;;;6.75;1.27;;;;;;;13.88;75.20;101287.00;4965649;28;20079;-67
2022/07/04 01:22:38;;;;;;;1.30;1.20;;;;;;;13.89;74.79;101286.84;4963100;28;20071;-65
2022/07/04 01:25:04;;;;;;;2.10;1.08;;;;;;;13.79;74.95;101280.72;4964676;28;20951;-67
2022/07/04 01:27:29;;;;;;;3.38;1.10;;;;;;;13.77;74.99;101280.00;4945125;28;20153;-66
2022/07/04 01:29:55;;;;;;;1.38;1.10;;;;;;;13.79;74.93;101279.88;4934180;28;20820;-66
2022/07/04 01:32:20;;;;;;;2.58;1.25;;;;;;;13.79;75.21;101285.19;4927025;28;20133;-66
2022/07/04 01:34:45;;;;;;;1.75;1.23;;;;;;;13.74;74.96;101278.47;4963967;28;20645;-66
2022/07/04 01:37:11;;;;;;;1.48;1.30;;;;;;;13.69;74.97;101280.75;4944340;28;20352;-66
2022/07/04 01:39:36;;;;;;;3.05;1.45;;;;;;;13.56;75.45;101290.84;4956490;28;20476;-66
2022/07/04 01:42:02;;;;;;;2.25;1.45;;;;;;;13.61;75.71;101285.09;4945427;28;20440;-67
2022/07/04 01:44:28;;;;;;;3.42;1.33;;;;;;;13.61;75.54;101291.25;4940729;28;20330;-66
2022/07/04 01:46:53;;;;;;;2.35;1.60;;;;;;;13.54;75.30;101288.31;4974384;28;20050;-64
2022/07/04 01:49:19;;;;;;;1.25;1.15;;;;;;;13.47;76.08;101292.53;4963520;28;20216;-67
2022/07/04 01:51:49;;;;;;;1.33;1.20;;;;;;;13.36;76.19;101290.88;4980159;28;20183;-63
2022/07/04 01:54:15;;;;;;;2.95;1.25;;;;;;;13.29;76.21;101305.66;4965385;28;20026;-66
2022/07/04 01:56:41;;;;;;;1.27;1.17;;;;;;;13.22;76.70;101297.41;4964464;28;20892;-66
2022/07/04 01:59:07;;;;;;;1.85;1.27;;;;;;;13.20;76.71;101311.84;4981648;28;20087;-66
2022/07/04 02:01:33;;;;;;;2.35;1.20;;;;;;;13.13;77.12;101302.72;4963469;28;20047;-68
2022/07/04 02:04:00;;;;;;;3.28;1.33;;;;;;;13.00;77.32;101309.19;4968694;28;20019;-66
2022/07/04 02:06:25;;;;;;;1.50;1.20;;;;;;;12.93;77.79;101309.84;4947506;28;20010;-65
2022/07/04 02:14:19;;;;;;;2.40;1.73;;;;;;;12.82;78.35;101319.63;4960235;28;20402;-67
2022/07/04 02:16:44;;;;;;;2.15;1.67;;;;;;;12.75;78.27;101330.94;4942511;28;20683;-67
2022/07/04 02:19:10;;;;;;;1.25;1.25;;;;;;;12.82;78.56;101324.94;4938186;28;20018;-66
2022/07/04 02:21:35;;;;;;;1.48;1.38;;;;;;;12.92;78.34;101324.13;4948623;28;20017;-66
2022/07/04 02:24:01;;;;;;;1.55;1.45;;;;;;;12.98;78.37;101327.06;4951888;28;20190;-66
2022/07/04 02:26:26;;;;;;;1.20;1.20;;;;;;;13.01;77.52;101326.78;4933043;28;20014;-66
2022/07/04 02:28:52;;;;;;;1.42;1.25;;;;;;;13.23;76.44;101332.81;4934141;28;20575;-66
2022/07/04 02:31:17;;;;;;;1.27;1.20;;;;;;;13.21;76.23;101332.09;4964607;28;20311;-67
2022/07/04 02:33:43;;;;;;;2.60;1.30;;;;;;;13.03;76.91;101331.97;4985759;28;20107;-66
2022/07/04 02:36:08;;;;;;;2.20;1.40;;;;;;;12.88;77.39;101328.88;4964965;28;20166;-66
2022/07/04 02:38:33;;;;;;;3.15;1.60;;;;;;;12.79;78.25;101335.00;4965843;28;20377;-67
2022/07/04 02:40:59;;;;;;;4.35;1.40;;;;;;;12.80;78.67;101331.38;4944139;28;20010;-66
2022/07/04 02:43:24;;;;;;;1.60;1.20;;;;;;;12.70;78.65;101328.69;4965204;28;20575;-67
2022/07/04 02:45:50;;;;;;;1.35;1.30;;;;;;;12.64;79.31;101327.41;4954441;28;20053;-66
2022/07/04 02:48:15;;;;;;;1.42;1.40;;;;;;;12.63;79.32;101325.72;4970712;28;20368;-65
2022/07/04 02:50:40;;;;;;;1.42;1.30;;;;;;;12.53;80.24;101335.50;4962941;28;20006;-66
2022/07/04 02:53:06;;;;;;;2.15;1.20;;;;;;;12.44;80.35;101333.66;4967219;28;20200;-68
2022/07/04 02:55:31;;;;;;;1.40;1.40;;;;;;;12.49;80.13;101340.25;4979279;28;20010;-66
2022/07/04 02:57:57;;;;;;;1.10;1.10;;;;;;;12.46;79.87;101339.66;4987023;28;20970;-66
2022/07/04 03:00:22;;;;;;;1.95;1.60;;;;;;;12.42;80.46;101339.09;4972506;28;20031;-68
2022/07/04 03:02:47;;;;;;;4.22;1.40;;;;;;;12.48;80.25;101337.69;4944043;28;20133;-65
2022/07/04 03:05:13;;;;;;;1.55;1.45;;;;;;;12.47;80.45;101350.16;4966510;28;20201;-66
2022/07/04 03:07:38;;;;;;;1.55;1.45;;;;;;;12.43;80.27;101350.56;4950826;28;20043;-65
2022/07/04 03:10:04;;;;;;;1.63;1.42;;;;;;;12.37;80.30;101358.06;4962661;28;20015;-67
2022/07/04 03:12:29;;;;;;;1.40;1.30;;;;;;;12.33;80.65;101361.97;4914805;28;20250;-66
2022/07/04 03:14:55;;;;;;;3.40;1.40;;;;;;;12.35;80.82;101369.78;4966972;28;20010;-66
2022/07/04 03:17:20;;;;;;;1.52;1.40;;;;;;;12.31;80.56;101371.88;4950856;28;21038;-65
2022/07/04 03:19:46;;;;;;;1.50;1.23;;;;;;;12.27;80.87;101375.78;4931259;28;20367;-68
2022/07/04 03:22:12;;;;;;;1.48;1.38;;;;;;;12.26;80.81;101375.91;4950370;28;20014;-65
2022/07/04 03:24:37;;;;;;;1.42;1.33;;;;;;;12.35;80.58;101375.09;4931731;28;20979;-66
2022/07/04 03:27:03;;;;;;;1.63;1.52;;;;;;;12.31;80.41;101377.19;4946726;28;20029;-66
2022/07/04 03:29:28;;;;;;;1.30;1.20;;;;;;;12.27;80.76;101381.09;4925993;28;20150;-68
2022/07/04 03:31:53;;;;;;;1.30;1.30;;;;;;;12.24;81.18;101383.13;4940127;28;20231;-66
2022/07/04 03:34:19;;;;;;;1.92;1.40;;;;;;;12.31;81.15;101379.84;4945528;28;20226;-66
2022/07/04 03:36:44;;;;;;;1.73;1.63;;;;;;;12.51;80.23;101385.25;4947996;28;20963;-66
2022/07/04 03:39:10;;;;;;;1.33;1.30;;;;;;;12.39;80.29;101384.47;4944844;28;20617;-66
2022/07/04 03:41:36;;;;;;;1.58;1.48;;;;;;;12.37;80.42;101389.91;4963014;28;20062;-66
2022/07/04 03:44:02;;;;;;;1.30;1.30;;;;;;;12.31;80.76;101393.13;4963308;28;20002;-66
2022/07/04 03:46:27;;;;;;;2.20;1.50;;;;;;;12.28;80.99;101387.22;4958758;28;20823;-65
2022/07/04 03:48:53;;;;;;;1.38;1.27;;;;;;;12.29;81.01;101396.88;4952809;28;20018;-66
2022/07/04 03:51:18;;;;;;;1.45;1.25;;;;;;;12.33;81.15;101396.47;4949037;28;20978;-63
2022/07/04 03:53:44;;;;;;;1.17;1.17;;;;;;;12.43;80.76;101406.28;4963912;28;20923;-66
2022/07/04 03:56:09;;;;;;;1.30;1.30;;;;;;;12.40;80.55;101403.91;4949452;28;20991;-65
2022/07/04 03:58:35;;;;;;;1.20;1.20;;;;;;;12.43;80.34;101401.00;4982913;28;20101;-66
2022/07/04 04:01:00;;;;;;;1.70;1.30;;;;;;;12.39;80.63;101397.75;4957169;28;20163;-66
2022/07/04 04:06:10;;;;;;;1.20;1.10;;;;;;;12.42;80.69;101400.13;4947564;28;20025;-65
2022/07/04 04:08:35;;;;;;;1.90;1.40;;;;;;;12.42;80.39;101394.00;4945232;28;20543;-66
2022/07/04 04:11:00;;;;;;;1.30;1.20;;;;;;;12.44;80.60;101392.06;4945055;28;20408;-67
2022/07/04 04:13:26;;;;;;;1.30;1.20;;;;;;;12.32;80.60;101391.28;4964173;28;20521;-66
2022/07/04 04:15:51;;;;;;;2.65;1.40;;;;;;;12.33;80.79;101404.41;4953548;28;20026;-65
2022/07/04 04:18:17;;;;;;;1.70;1.60;;;;;;;12.30;81.20;101396.72;4958510;28;20016;-66
2022/07/04 04:20:42;;;;;;;3.60;1.42;;;;;;;12.51;80.85;101396.69;4928305;28;20034;-65
2022/07/04 04:23:08;;;;;;;2.20;1.48;;;;;;;12.45;80.53;101385.75;4955946;28;20018;-67
2022/07/04 04:25:33;;;;;;;1.95;1.40;;;;;;;12.45;80.82;101394.56;4964416;28;20010;-65
2022/07/04 04:27:59;;;;;;;1.40;1.30;;;;;;;12.37;81.52;101383.78;4963613;28;20056;-67
2022/07/04 04:30:24;;;;;;;1.30;1.20;;;;;;;12.51;81.08;101385.25;4963527;28;20041;-65
2022/07/04 04:32:49;;;;;;;1.55;1.50;;;;;;;12.53;81.01;101388.59;4976266;28;20261;-67
2022/07/04 04:35:15;;;;;;;1.85;1.60;;;;;;;12.58;80.76;101389.03;4947135;28;20756;-66
2022/07/04 04:37:40;;;;;;;1.15;1.00;;;;;;;12.64;80.50;101393.81;4958084;28;20014;-65
2022/07/04 04:40:06;;;;;;;1.35;1.25;;;;;;;12.73;80.33;101399.28;4963637;28;20044;-65
2022/07/04 04:42:32;;;;;;;1.55;1.30;;;;;;;12.76;80.41;101394.56;4978107;28;20415;-67
2022/07/04 04:44:57;;;;;;;1.55;1.45;;;;;;;12.74;80.45;101398.31;4939718;28;20349;-66
2022/07/04 04:47:22;;;;;;;1.55;1.00;;;;;;;12.83;80.35;101401.00;4942578;28;20041;-65
2022/07/04 04:49:48;;;;;;;3.50;1.30;;;;;;;12.98;79.86;101409.41;4962463;28;20021;-66
2022/07/04 04:52:13;;;;;;;1.45;1.35;;;;;;;12.99;79.81;101402.31;4943515;28;20739;-66
2022/07/04 04:54:39;;;;;;;2.42;1.20;;;;;;;13.03;79.95;101406.38;4912063;28;20473;-65
2022/07/04 04:57:04;;;;;;;1.25;1.17;;;;;;;13.09;79.72;101407.63;4940376;28;20026;-66
2022/07/04 04:59:30;;;;;;;1.30;1.20;;;;;;;13.19;79.83;101406.66;4964167;28;20501;-66
2022/07/04 05:01:59;;;;;;;1.77;1.30;;;;;;;13.26;79.79;101404.28;4927383;28;20021;-65
2022/07/04 05:04:24;;;;;;;1.73;1.63;;;;;;;13.29;79.66;101398.69;4960002;28;20487;-65
2022/07/04 05:06:50;;;;;;;1.50;1.45;;;;;;;13.44;79.43;101406.28;4943213;28;20409;-65
2022/07/04 05:09:15;;;;;;;2.22;1.30;;;;;;;13.45;79.48;101407.97;4922215;28;20108;-63
2022/07/04 05:11:40;;;;;;;2.97;1.10;;;;;;;13.48;79.41;101395.25;4958224;28;20018;-65
2022/07/04 05:14:06;;;;;;;3.05;1.15;;;;;;;13.64;79.25;101402.66;4951582;28;20022;-65
2022/07/04 05:16:31;;;;;;;4.40;1.52;;;;;;;13.68;79.27;101409.38;4974835;28;20142;-66
2022/07/04 05:18:57;;;;;;;1.88;1.30;;;;;;;13.81;79.22;101411.75;4982135;28;20024;-64
2022/07/04 05:21:22;;;;;;;1.30;1.20;;;;;;;13.84;79.04;101400.81;4961716;28;20025;-66
2022/07/04 05:23:47;;;;;;;1.27;1.27;;;;;;;14.08;78.79;101411.00;4962838;28;20980;-66
2022/07/04 05:26:13;;;;;;;2.00;1.40;;;;;;;14.22;78.46;101414.19;4944982;28;20455;-66
2022/07/04 05:28:38;;;;;;;3.90;1.33;;;;;;;14.26;78.63;101411.09;4946499;28;20110;-65
2022/07/04 05:31:04;;;;;;;1.50;1.40;;;;;;;14.27;78.41;101401.31;4979966;28;20021;-65
2022/07/04 05:33:29;;;;;;;1.90;1.35;;;;;;;14.32;78.09;101407.03;4927260;28;20993;-66
2022/07/04 05:35:54;;;;;;;3.30;1.33;;;;;;;14.49;78.01;101408.06;4942379;28;20782;-65
2022/07/04 05:38:20;;;;;;;2.10;1.67;;;;;;;14.62;77.84;101401.59;4960660;28;20436;-65
2022/07/04 05:40:45;;;;;;;1.55;1.45;;;;;;;14.65;77.47;101411.97;4964049;28;20018;-66
2022/07/04 05:43:11;;;;;;;1.95;1.50;;;;;;;14.71;77.22;101412.22;4986156;28;20611;-66
2022/07/04 05:45:37;;;;;;;3.70;1.90;;;;;;;14.81;76.49;101414.03;4962677;28;20108;-65
2022/07/04 05:48:02;;;;;;;4.13;2.00;;;;;;;14.88;76.16;101415.94;4965636;28;20334;-66
2022/07/04 05:50:28;;;;;;;2.40;2.20;;;;;;;14.99;75.59;101406.91;4949592;28;20070;-65
2022/07/04 05:52:53;;;;;;;5.63;2.60;;;;;;;15.08;74.36;101413.97;4965742;28;20029;-65
2022/07/04 05:55:19;;;;;;;2.75;2.55;;;;;;;15.21;74.28;101410.13;4947737;28;20005;-64
2022/07/04 05:57:44;;;;;;;6.63;3.53;;;;;;;15.28;72.89;101417.38;4983255;28;20029;-66
2022/07/04 06:00:11;;;;;;;4.25;3.00;;;;;;;15.38;72.23;101425.28;4947682;28;20022;-63
2022/07/04 06:02:37;;;;;;;6.78;3.15;;;;;;;15.50;72.19;101420.59;4969762;28;20025;-66
2022/07/04 06:05:02;;;;;;;3.97;3.42;;;;;;;15.52;71.69;101417.75;4945823;28;20718;-67
2022/07/04 06:07:28;;;;;;;3.53;3.22;;;;;;;15.54;71.84;101423.75;4945970;28;20038;-66
2022/07/04 06:09:53;;;;;;;3.88;3.50;;;;;;;15.64;71.34;101424.53;4965248;28;20381;-66
2022/07/04 06:12:18;;;;;;;4.72;3.13;;;;;;;15.79;71.23;101424.84;4943324;28;20072;-65
2022/07/04 06:14:44;;;;;;;4.53;3.00;;;;;;;15.85;70.97;101412.72;4958253;28;20434;-67
2022/07/04 06:17:09;;;;;;;3.65;3.15;;;;;;;15.84;71.16;101411.06;4976329;28;20014;-65
2022/07/04 06:19:35;;;;;;;7.25;3.20;;;;;;;15.93;71.08;101410.97;4968264;28;20300;-66
2022/07/04 06:22:00;;;;;;;4.07;3.35;;;;;;;16.02;71.08;101411.00;4964772;28;20033;-66
2022/07/04 06:24:25;;;;;;;6.57;4.07;;;;;;;16.07;70.90;101409.53;4965378;28;20386;-66
2022/07/04 06:26:51;;;;;;;7.25;4.45;;;;;;;16.05;70.16;101408.03;4964580;28;20550;-65
2022/07/04 06:29:16;;;;;;;7.38;3.72;;;;;;;16.11;70.53;101408.22;4965723;28;20518;-67
2022/07/04 06:31:42;;;;;;;5.80;3.58;;;;;;;16.19;70.27;101411.94;4954606;28;20052;-64
2022/07/04 06:36:51;;;;;;;4.43;3.72;;;;;;;16.40;70.01;101393.72;4948567;28;20079;-66
2022/07/04 06:39:16;;;;;;;7.15;3.38;;;;;;;16.47;69.31;101413.47;4930481;28;20727;-66
2022/07/04 06:41:42;;;;;;;6.70;3.45;;;;;;;16.58;69.12;101403.47;4961276;28;20687;-66
2022/07/04 06:44:07;;;;;;;4.13;2.47;;;;;;;16.62;69.03;101400.31;4948110;28;20021;-66
2022/07/04 06:46:32;;;;;;;5.57;2.55;;;;;;;16.70;68.94;101409.41;4992283;28;20021;-66
2022/07/04 06:48:58;;;;;;;5.90;2.40;;;;;;;16.80;69.10;101405.59;4959651;28;20502;-65
2022/07/04 06:51:23;;;;;;;4.57;2.83;;;;;;;16.93;68.40;101407.00;4942338;28;20333;-66
2022/07/04 06:53:49;;;;;;;4.50;2.58;;;;;;;16.95;68.40;101410.31;4951991;28;20302;-66
2022/07/04 06:56:14;;;;;;;4.68;2.95;;;;;;;16.99;67.44;101407.19;4945737;28;20332;-66
2022/07/04 06:58:40;;;;;;;6.13;2.80;;;;;;;16.95;67.50;101407.66;4964922;28;20340;-67
2022/07/04 07:01:05;;;;;;;4.50;2.28;;;;;;;17.02;67.01;101408.72;4964223;28;20055;-66
2022/07/04 07:03:30;;;;;;;4.07;2.25;;;;;;;17.09;68.37;101404.38;4947066;28;20019;-67
2022/07/04 07:05:56;;;;;;;2.80;2.30;;;;;;;17.08;67.13;101408.03;4943311;28;20411;-65
2022/07/04 07:08:22;;;;;;;4.47;2.20;;;;;;;17.23;67.08;101408.25;4963007;28;20600;-66
2022/07/04 07:10:47;;;;;;;2.42;2.05;;;;;;;17.39;67.15;101407.44;4965968;28;20126;-66
2022/07/04 07:13:14;;;;;;;4.97;2.33;;;;;;;17.50;64.94;101407.09;4965567;28;20402;-67
2022/07/04 07:15:39;;;;;;;3.17;2.20;;;;;;;17.51;63.89;101414.16;4949845;28;20056;-67
2022/07/04 07:18:05;;;;;;;3.22;2.35;;;;;;;17.63;62.57;101408.47;4963497;28;20006;-67
2022/07/04 07:20:30;;;;;;;2.88;2.10;;;;;;;17.70;61.96;101404.09;4935550;28;20480;-67
2022/07/04 07:22:55;;;;;;;3.40;2.30;;;;;;;17.75;61.79;101403.59;4960671;28;20143;-67
2022/07/04 07:25:21;;;;;;;4.85;2.08;;;;;;;17.76;62.50;101398.06;4961405;28;20360;-67
2022/07/04 07:27:46;;;;;;;3.70;2.15;;;;;;;17.79;61.12;101397.72;4943342;28;20038;-66
2022/07/04 07:30:12;;;;;;;3.15;1.73;;;;;;;17.84;61.64;101392.72;4970687;28;20933;-67
2022/07/04 07:32:37;;;;;;;4.82;2.15;;;;;;;17.93;61.97;101395.41;4975016;28;20102;-65
2022/07/04 07:35:03;;;;;;;2.45;1.70;;;;;;;18.07;60.50;101388.53;4983336;28;20466;-67
2022/07/04 07:37:28;;;;;;;4.57;1.98;;;;;;;18.19;60.34;101382.66;4962419;28;20419;-65
2022/07/04 07:39:54;;;;;;;4.95;1.50;;;;;;;18.28;59.17;101385.31;4974830;28;20235;-66
2022/07/04 07:42:19;;;;;;;3.50;1.77;;;;;;;18.52;59.03;101387.88;4982970;28;20072;-66
2022/07/04 07:44:46;;;;;;;2.80;1.65;;;;;;;18.53;58.95;101389.56;4985502;28;20005;-67
2022/07/04 07:47:13;;;;;;;4.22;1.58;;;;;;;18.48;56.18;101386.56;4985580;28;20132;-67
2022/07/04 07:49:38;;;;;;;1.77;1.17;;;;;;;18.54;54.68;101385.88;4963709;28;20010;-64
2022/07/04 07:52:04;;;;;;;3.25;1.02;;;;;;;18.54;54.18;101388.56;4962748;28;20025;-67
2022/07/04 07:54:29;;;;;;;4.63;1.23;;;;;;;18.61;53.51;101394.03;4966031;28;20099;-67
2022/07/04 07:56:54;;;;;;;4.03;0.98;;;;;;;18.57;54.15;101390.06;4982104;28;20192;-66
2022/07/04 07:59:20;;;;;;;0.90;0.90;;;;;;;18.68;54.68;101391.50;4964824;28;20022;-65
2022/07/04 08:01:45;;;;;;;1.88;1.30;;;;;;;18.86;52.58;101393.94;4978724;28;20014;-67
2022/07/04 08:06:55;;;;;;;3.22;0.90;;;;;;;18.69;53.27;101390.50;4970679;28;20344;-67
2022/07/04 08:09:20;;;;;;;1.17;0.90;;;;;;;18.90;52.87;101389.94;4984715;28;20006;-65
2022/07/04 08:11:46;;;;;;;2.15;1.10;;;;;;;18.96;53.37;101386.53;4983853;28;20016;-67
2022/07/04 08:14:11;;;;;;;1.38;0.80;;;;;;;19.12;52.50;101382.09;4964730;28;20056;-66
2022/07/04 08:16:37;;;;;;;1.92;0.80;;;;;;;19.19;52.86;101383.03;4988499;28;20071;-66
2022/07/04 08:19:02;;;;;;;2.25;0.90;;;;;;;19.17;51.96;101390.44;4963940;28;20014;-67
2022/07/04 08:21:28;;;;;;;2.58;1.52;;;;;;;19.14;52.15;101391.63;4961709;28;20010;-67
2022/07/04 08:23:53;;;;;;;3.72;1.50;;;;;;;19.30;51.79;101384.50;4966653;28;20034;-65
2022/07/04 08:26:19;;;;;;;2.22;1.10;;;;;;;19.29;51.42;101401.59;4930903;28;20226;-66
2022/07/04 08:28:44;;;;;;;2.35;0.90;;;;;;;19.32;51.79;101399.41;4947480;28;20298;-65
2022/07/04 08:31:10;;;;;;;2.08;1.05;;;;;;;19.37;51.91;101391.66;4961685;28;20014;-67
2022/07/04 08:33:35;;;;;;;1.63;0.93;;;;;;;19.39;51.17;101399.53;4950540;28;20072;-66
2022/07/04 08:36:01;;;;;;;1.23;1.00;;;;;;;19.47;51.17;101395.94;4928690;28;20460;-66
2022/07/04 08:38:26;;;;;;;2.58;0.88;;;;;;;19.72;50.68;101405.44;4982999;28;20300;-67
2022/07/04 08:40:57;;;;;;;1.13;0.80;;;;;;;19.76;50.87;101408.63;4945265;28;20044;-65
2022/07/04 08:43:23;;;;;;;1.65;1.17;;;;;;;19.91;49.45;101403.28;4963696;28;20159;-67
2022/07/04 08:45:48;;;;;;;0.82;0.82;;;;;;;19.89;48.75;101406.16;4977379;28;20788;-67
2022/07/04 08:48:14;;;;;;;0.90;0.70;;;;;;;20.15;51.18;101402.25;4976219;28;20626;-67
2022/07/04 08:50:44;;;;;;;0.90;0.80;;;;;;;20.31;49.86;101401.22;4943758;28;20858;-66
2022/07/04 08:53:11;;;;;;;1.00;0.80;;;;;;;20.47;50.54;101392.13;4945218;28;20006;-64
2022/07/04 08:58:30;;;;;;;1.27;0.80;;;;;;;20.57;48.62;101392.69;4951564;28;20092;-65
2022/07/04 09:01:04;;;;;;;1.25;1.00;;;;;;;20.59;46.36;101379.88;4943554;28;20019;-65
2022/07/04 09:03:29;;;;;;;2.92;0.60;;;;;;;20.49;48.02;101387.41;4962643;28;20137;-66
2022/07/04 09:05:55;;;;;;;0.60;0.60;;;;;;;20.71;49.87;101387.50;4949917;28;20006;-66
2022/07/04 09:08:20;;;;;;;1.60;0.68;;;;;;;20.76;47.94;101390.47;4944823;28;20030;-66
2022/07/04 09:10:47;;;;;;;2.78;0.80;;;;;;;20.73;46.76;101385.47;4948876;28;21243;-66
2022/07/04 09:13:14;;;;;;;1.40;0.70;;;;;;;21.02;47.05;101392.59;4965511;28;20025;-64
2022/07/04 09:15:40;;;;;;;0.73;0.50;;;;;;;21.09;42.97;101395.38;4970211;28;20179;-66
2022/07/04 09:18:06;;;;;;;1.73;0.50;;;;;;;21.11;41.67;101396.03;4986696;28;20643;-66
2022/07/04 09:20:32;;;;;;;0.80;0.50;;;;;;;21.16;42.75;101401.66;4985065;28;20408;-64
2022/07/04 09:22:58;;;;;;;0.43;0.43;;;;;;;21.34;42.31;101397.72;4987883;28;20057;-66
2022/07/04 09:25:24;;;;;;;2.22;0.63;;;;;;;21.41;42.86;101393.22;4987992;28;20029;-66
2022/07/04 09:27:54;;;;;;;3.03;0.52;;;;;;;21.78;42.69;101396.69;4945374;28;20938;-66
2022/07/04 09:30:21;;;;;;;0.63;0.63;;;;;;;21.87;42.79;101392.81;4965722;28;20022;-65
2022/07/04 09:32:50;;;;;;;0.70;0.70;;;;;;;22.05;42.49;101383.38;4962814;28;20095;-66
2022/07/04 09:35:24;;;;;;;1.38;0.82;;;;;;;22.24;43.35;101385.38;4965913;28;20896;-67
2022/07/04 09:37:50;;;;;;;1.58;1.05;;;;;;;22.70;42.86;101377.75;4966697;28;20104;-66
2022/07/04 09:40:23;;;;;;;1.85;0.80;;;;;;;22.86;40.63;101371.13;4966575;28;20014;-67
2022/07/04 09:42:48;;;;;;;2.83;0.63;;;;;;;22.82;38.90;101378.81;4946987;28;20006;-66
2022/07/04 09:45:14;;;;;;;1.88;1.63;;;;;;;23.02;39.53;101365.38;4978237;28;20014;-67
2022/07/04 09:47:40;;;;;;;1.50;0.50;;;;;;;23.29;39.05;101374.38;4946964;28;20042;-67
2022/07/04 09:50:13;;;;;;;1.65;0.50;;;;;;;23.38;39.15;101363.38;4965355;28;20355;-67
2022/07/04 09:52:53;;;;;;;1.52;0.63;;;;;;;23.74;40.72;101372.94;4946838;28;20015;-67
2022/07/04 09:55:28;;;;;;;0.60;0.50;;;;;;;23.78;37.63;101366.09;4944438;28;20010;-67
2022/07/04 09:57:56;;;;;;;0.60;0.60;;;;;;;23.72;37.90;101362.34;4947790;28;20014;-66
2022/07/04 10:00:23;;;;;;;0.50;0.50;;;;;;;23.97;37.87;101372.53;4955597;28;20097;-66
2022/07/04 10:02:49;;;;;;;0.90;0.75;;;;;;;24.17;36.49;101362.50;4977295;28;21038;-67
2022/07/04 10:05:25;;;;;;;0.75;0.50;;;;;;;24.08;35.31;101365.66;4947738;28;20022;-65
2022/07/04 10:07:51;;;;;;;0.90;0.90;;;;;;;24.09;37.04;101372.72;4951201;28;20045;-66
2022/07/04 10:10:33;;;;;;;1.00;0.50;;;;;;;24.61;37.02;101370.91;4967540;28;20018;-67
2022/07/04 10:13:03;;;;;;;1.23;0.75;;;;;;;25.03;36.88;101368.59;4947577;28;20209;-67
2022/07/04 10:15:29;;;;;;;0.80;0.60;;;;;;;25.11;34.95;101364.78;4962430;28;20014;-64
2022/07/04 10:17:54;;;;;;;4.75;0.60;;;;;;;25.26;36.48;101371.78;4981855;28;20350;-66
2022/07/04 10:20:20;;;;;;;1.88;0.60;;;;;;;25.75;35.67;101359.31;4964090;28;20037;-64
2022/07/04 10:22:45;;;;;;;2.65;0.70;;;;;;;26.17;35.40;101362.25;4985101;28;20041;-67
2022/07/04 10:25:11;;;;;;;0.52;0.52;;;;;;;26.38;34.06;101358.25;4969497;28;20065;-66
2022/07/04 10:27:37;;;;;;;1.40;0.70;;;;;;;26.69;35.11;101347.44;4970203;28;20037;-67
2022/07/04 10:30:04;;;;;;;1.67;0.57;;;;;;;26.82;32.37;101354.56;4971760;28;20250;-68
2022/07/04 10:32:29;;;;;;;2.97;0.80;;;;;;;26.90;31.45;101355.06;4992612;28;20574;-65
2022/07/04 10:34:55;;;;;;;2.30;0.50;;;;;;;27.16;34.33;101346.75;4971227;28;20010;-66
2022/07/04 10:37:21;;;;;;;0.95;0.47;;;;;;;26.96;32.88;101347.91;4969824;28;20117;-67
2022/07/04 10:39:47;;;;;;;0.65;0.43;;;;;;;27.56;33.80;101343.41;4968605;28;20115;-67
2022/07/04 10:42:25;;;;;;;0.50;0.50;;;;;;;27.52;32.40;101343.06;4988312;28;20010;-67
2022/07/04 10:44:50;;;;;;;1.58;0.60;;;;;;;27.66;31.80;101337.41;4984715;28;20053;-67
2022/07/04 10:47:30;;;;;;;0.63;0.63;;;;;;;27.56;33.14;101340.69;4969772;28;20215;-67
2022/07/04 10:49:56;;;;;;;0.93;0.80;;;;;;;28.15;33.66;101337.97;4970671;28;20127;-65
2022/07/04 10:52:21;;;;;;;0.70;0.70;;;;;;;27.93;33.50;101329.56;4969500;28;20482;-67
2022/07/04 10:54:46;;;;;;;1.40;0.50;;;;;;;27.84;32.11;101331.81;4949895;28;20662;-67
2022/07/04 10:57:22;;;;;;;0.70;0.43;;;;;;;27.47;33.49;101321.22;4949811;28;20018;-67
2022/07/04 10:59:53;;;;;;;1.70;0.50;;;;;;;27.53;31.23;101322.16;4953738;28;20259;-67
2022/07/04 11:02:29;;;;;;;0.85;0.50;;;;;;;28.05;30.57;101322.25;4990722;28;20018;-66
2022/07/04 11:05:10;;;;;;;1.50;0.80;;;;;;;28.35;31.52;101314.94;4965370;28;20091;-66
2022/07/04 11:07:36;;;;;;;0.65;0.40;;;;;;;26.99;31.69;101314.84;4947723;28;20042;-67
2022/07/04 11:10:10;;;;;;;0.80;0.65;;;;;;;27.41;34.40;101316.69;4969043;28;20160;-67
2022/07/04 11:12:54;;;;;;;1.17;0.70;;;;;;;28.04;31.72;101315.13;4967375;28;20045;-67
2022/07/04 11:15:27;;;;;;;0.85;0.52;;;;;;;28.26;31.41;101314.50;4998680;28;20539;-67
2022/07/04 11:17:54;;;;;;;2.15;0.70;;;;;;;28.56;29.15;101313.44;4989751;28;20030;-66
2022/07/04 11:20:20;;;;;;;0.70;0.70;;;;;;;28.82;29.87;101308.50;4966274;28;20060;-67
2022/07/04 11:22:45;;;;;;;1.05;0.75;;;;;;;28.41;31.01;101301.16;4992069;28;20490;-67
2022/07/04 11:25:11;;;;;;;1.77;0.70;;;;;;;29.46;31.79;101309.03;4988767;28;20026;-65
2022/07/04 11:27:37;;;;;;;0.93;0.52;;;;;;;29.44;30.24;101310.34;4972251;28;20064;-67
2022/07/04 11:30:03;;;;;;;1.88;0.60;;;;;;;28.80;32.26;101306.00;4956147;28;20142;-67
2022/07/04 11:32:33;;;;;;;0.88;0.52;;;;;;;27.69;32.99;101312.44;4949573;28;20010;-67
2022/07/04 11:34:58;;;;;;;0.80;0.50;;;;;;;26.89;33.92;101311.84;4963573;28;20427;-67
2022/07/04 11:37:24;;;;;;;0.95;0.70;;;;;;;27.31;32.26;101317.25;4985251;28;20339;-67